Terminal Aerodrome Forecast
Issued by NWS

Home | Current Version | Previous Version | Text Only | Print | Product List | Glossary On
Versions: 1 2 3 4 5 6 7 8 9 10 11 12 13 14 15 16 17 18 19 20 21 22 23 24 25 26
000
FTUS45 KREV 281100
TAFTRK
TAF
KTRK 281127Z 2812/2912 00000KT 1/2SM FZFG VV002
     FM281700 VRB04KT P6SM SCT060 BKN150
     FM290100 VRB03KT P6SM BKN150
     FM290900 00000KT 1/2SM FZFG VV002=

USA.gov is the U.S. government's official web portal to all federal, state and local government web resources and services.